Open Full Screen Window  High Contrast Mode
Wind Gusting 16 knots
09
September 30, 2016 6:04 AM EDT
Weather Information
Wind Direction
  060 °
Wind Speed
  09 kt (10 mph)
Wind Gust
  16 kt (18 mph)
Altimeter
30.24 in
Visibility
10 SM
Temperature
15° C
59° F
Dewpoint
14° C
57° F
Humidity
94%
1hr Rain Fall
00.00 in.
24hr Rain Fall
00.01 in.
Sky Condition
Overcast @ 1,400 ft
Scattered @ 700 ft
MVFR

METAR KIKW 301004Z AUTO 06009G16KT 10SM SCT007 OVC014 15/14 A3024 RMK AO2 T01480143

*Background is not an actual portrayal of the airport.